Terminal Aerodrome Forecast
Issued by NWS

Home | Current Version | Previous Version | Text Only | Print | Product List | Glossary On
Versions: 1 2 3 4 5 6 7 8 9 10 11 12 13 14 15 16 17 18 19 20 21 22 23 24 25
393
FTUS46 KSGX 062328
TAFSAN
TAF
KSAN 062328Z 0700/0806 30010KT P6SM SKC
     FM070100 VRB04KT P6SM SKC
     FM072100 31009KT P6SM SKC
     FM080200 VRB03KT P6SM SKC=

USA.gov is the U.S. government's official web portal to all federal, state and local government web resources and services.